x

Halibut Bank (46146) Wave Buoy

6:00pm - Sun 28th Aug 2016 All times are PDT. -7 hours from GMT.

  • Sig Wave height 2.0ft
  • Peak Period 3s
  • Wind
    16mph, 20mph gusts
  • Sea Temp 61°f
  • Air Temp 61°f
  • Sea Pressure 1018.2mb
  • Halibut Bank
  • Halibut Bank

More Historic Weather Station data

Upgrade to MSW Pro to gain access to the past 30 days of data for over 8000 Wavebouys and Weather Stations around the globe.

Join Pro

Comparision Forecast

View Surf forecast
   
Sun 08/28 6:00pm 2ft 3s 16 20 mph 1018.2mb 61f 61f
5:00pm 1.6ft 3s 16 18 mph 1018.5mb 61f 61f
4:00pm 1.6ft 4s 13 16 mph 1018.4mb 61f 61f
3:00pm 1.6ft 4s 16 18 mph 1018.7mb 61f 61f
2:00pm 2ft 4s 16 18 mph 1018.7mb 61f 61f
1:00pm 2.5ft 4s 18 20 mph 1018.6mb 62f 61f
12:00pm 2.5ft 4s 18 22 mph 1018.7mb 62f 61f
11:00am 2.5ft 4s 18 20 mph 1018.7mb 61f 61f
10:00am 2.5ft 4s 22 25 mph 1017.9mb 62f 61f
9:00am 3ft 4s 18 22 mph 1017.9mb 62f 61f
8:00am 3ft 4s 22 25 mph 1017.7mb 62f 60f
7:00am 3ft 4s 22 27 mph 1016.9mb 62f 60f
6:00am 3ft 4s 22 27 mph 1016.1mb 63f 60f
5:00am 3ft 4s 25 27 mph 1015.6mb 62f 60f
4:00am 2.5ft 4s 22 27 mph 1015.1mb 62f 60f
3:00am 3ft 4s 22 27 mph 1014.4mb 62f 61f
2:00am 3ft 4s 22 27 mph 1014mb 62f 62f
1:00am 2.5ft 4s 20 27 mph 1013.5mb 62f 62f
12:00am 1.6ft 4s 16 20 mph 1013.2mb 63f 64f
Sat 08/27 11:00pm 1.3ft 3s 16 18 mph 1012.6mb 62f 64f
10:00pm 1ft 3s 13 16 mph 1012.3mb 62f 64f
9:00pm 1ft 3s 9 13 mph 1012mb 62f 65f
8:00pm 1ft 3s 4
mph
1011.2mb 63f 64f
7:00pm 0.7ft 3s 4
mph
1011.1mb 63f 64f
6:00pm 0.7ft 3s 4 7 mph 1010.7mb 64f 64f
5:00pm 0.7ft 4s 4 7 mph 1010.3mb 63f 64f
4:00pm 1.3ft 3s 9 13 mph 1009.9mb 63f 65f
3:00pm 1.3ft 4s 4 7 mph 1009.5mb 63f 65f
2:00pm 1.6ft 4s 9 11 mph 1009.1mb 62f 64f
1:00pm 1.6ft 4s 7 9 mph 1008.8mb 62f 64f
12:00pm 2.5ft 4s 11 13 mph 1008.5mb 62f 64f
11:00am 2.5ft 4s 13 18 mph 1008.1mb 61f 62f
10:00am 2.5ft 4s 18 22 mph 1007.9mb 61f 62f
9:00am 3ft 4s 20 25 mph 1007.5mb 61f 63f
8:00am 3.5ft 4s 25 29 mph 1006.9mb 61f 64f
7:00am 3ft 4s 25 29 mph 1006.6mb 62f 64f
6:00am 3ft 4s 22 29 mph 1006.1mb 63f 64f
5:00am 2.5ft 4s 25 31 mph 1005.8mb 65f 65f
4:00am 2.5ft 4s 25 29 mph 1005.9mb 65f 66f
3:00am 2.5ft 4s 22 27 mph 1006mb 65f 66f
2:00am 2.5ft 4s 22 25 mph 1006.2mb 64f 67f
1:00am 1.6ft 3s 20 25 mph 1006.7mb 66f 67f
12:00am 1ft 3s 20 25 mph 1007.1mb 67f 69f
Fri 08/26 11:00pm 0.3ft 6s 13 16 mph 1007.7mb 67f 69f
10:00pm 0.3ft 2s 2 4 mph 1008mb 67f 69f
9:00pm 0.3ft 5s 7
mph
1008.2mb 68f 70f
8:00pm 0.3ft 6s 4
mph
1008.5mb 67f 70f
7:00pm 0.3ft 3s 2
mph
1008.6mb 69f 70f
6:00pm 0.3ft 6s 2
mph
1009.2mb 70f 71f
5:00pm 0.3ft 5s 4
mph
1009.5mb 70f 70f
4:00pm 0.3ft 4s 2
mph
1010.3mb 71f 71f
3:00pm 0.3ft 2s  -  mph 1011mb 71f 71f
2:00pm 0.3ft 3s 2
mph
1011.9mb 69f 69f
1:00pm 0.3ft 5s  -  mph 1012.6mb 68f 71f
12:00pm 0.7ft 3s 2 4 mph 1013mb 66f 67f
11:00am 0.3ft 2s 2
mph
1013.5mb 66f 66f
10:00am 0.7ft 2s 4
mph
1013.9mb 65f 66f
9:00am 0.3ft 2s 7 9 mph 1014.2mb 66f 66f
8:00am 0.3ft 5s 7
mph
1014.3mb 66f 65f
7:00am 0.3ft 2s 7
mph
1014.6mb 66f 65f
6:00am 0.3ft 7s 4 7 mph 1014.6mb 66f 65f
5:00am 0.3ft 3s 7 9 mph 1014.4mb 66f 67f
4:00am 0.3ft 7s 4 7 mph 1014.3mb 65f 65f
3:00am 0.3ft 3s 4 7 mph 1014.5mb 65f 66f
2:00am 0.3ft 6s 4
mph
1014.6mb 65f 66f
1:00am 0.3ft 3s 2 4 mph 1014.6mb 65f 68f
12:00am 0.3ft 6s 2 4 mph 1014.4mb 66f 71f
Thu 08/25 11:00pm 0.3ft 4s 2
mph
1014.5mb 65f 67f
10:00pm 0.3ft 3s 2
mph
1014.5mb 66f 69f
9:00pm 0.3ft 3s 2
mph
1014.8mb 66f 72f
8:00pm 0.3ft 2s 4
mph
1014.9mb 67f 68f
7:00pm 0.3ft 4s 2 4 mph 1015mb 67f 69f
6:00pm 0.3ft 2s 4
mph
1015.4mb 68f 69f
5:00pm 0.7ft 4s 2
mph
1016.3mb 67f 69f
4:00pm 0.7ft 3s 2 4 mph 1016.7mb 66f 69f
3:00pm 0.7ft 3s 7 9 mph 1017.5mb 66f 67f
2:00pm 1ft 3s 7 9 mph 1018.3mb 66f 66f
1:00pm 1.3ft 3s 7 9 mph 1019mb 65f 65f
12:00pm 1.3ft 3s 9 13 mph 1019.6mb 65f 65f
11:00am 1ft 3s 13 16 mph 1020mb 65f 64f
10:00am 1ft 3s 13 16 mph 1020.5mb 64f 64f
9:00am 1.3ft 3s 11 13 mph 1021mb 64f 64f
8:00am 1.3ft 3s 11 13 mph 1021.2mb 64f 64f
7:00am 1.3ft 3s 11 13 mph 1021.3mb 64f 63f
6:00am 1.3ft 3s 16 18 mph 1021.1mb 64f 65f
5:00am 1.3ft 3s 13 16 mph 1021mb 64f 65f
4:00am 1ft 3s 16 18 mph 1020.6mb 64f 65f
3:00am 1ft 3s 13 16 mph 1020.7mb 64f 65f